sensor_id;sensor_type;location;lat;lon;timestamp;P1;durP1;ratioP1;P2;durP2;ratioP2
1140;SDS011;559;48.628;8.924;2023-11-18T00:01:30;71.50;;;67.63;;
1140;SDS011;559;48.628;8.924;2023-11-18T00:03:57;72.72;;;68.63;;
1140;SDS011;559;48.628;8.924;2023-11-18T00:06:24;74.38;;;70.40;;
1140;SDS011;559;48.628;8.924;2023-11-18T00:08:50;73.07;;;69.28;;
1140;SDS011;559;48.628;8.924;2023-11-18T00:11:18;83.82;;;78.00;;
1140;SDS011;559;48.628;8.924;2023-11-18T00:13:44;78.93;;;74.03;;
1140;SDS011;559;48.628;8.924;2023-11-18T00:16:11;75.00;;;71.00;;
1140;SDS011;559;48.628;8.924;2023-11-18T00:18:38;71.85;;;68.10;;
1140;SDS011;559;48.628;8.924;2023-11-18T00:21:05;74.55;;;70.60;;
1140;SDS011;559;48.628;8.924;2023-11-18T00:23:32;80.13;;;75.32;;
1140;SDS011;559;48.628;8.924;2023-11-18T00:25:58;82.45;;;77.55;;
1140;SDS011;559;48.628;8.924;2023-11-18T00:28:27;76.47;;;72.35;;
1140;SDS011;559;48.628;8.924;2023-11-18T00:30:53;76.85;;;72.75;;
1140;SDS011;559;48.628;8.924;2023-11-18T00:33:20;69.03;;;65.32;;
1140;SDS011;559;48.628;8.924;2023-11-18T00:35:47;71.53;;;67.63;;
1140;SDS011;559;48.628;8.924;2023-11-18T00:38:14;70.10;;;66.10;;
1140;SDS011;559;48.628;8.924;2023-11-18T00:40:40;70.10;;;66.15;;
1140;SDS011;559;48.628;8.924;2023-11-18T00:43:07;71.40;;;67.50;;
1140;SDS011;559;48.628;8.924;2023-11-18T00:45:36;70.15;;;66.25;;
1140;SDS011;559;48.628;8.924;2023-11-18T00:48:06;72.50;;;68.55;;
1140;SDS011;559;48.628;8.924;2023-11-18T00:50:38;75.88;;;71.68;;
1140;SDS011;559;48.628;8.924;2023-11-18T00:53:08;69.00;;;65.18;;
1140;SDS011;559;48.628;8.924;2023-11-18T00:55:35;75.93;;;71.93;;
1140;SDS011;559;48.628;8.924;2023-11-18T00:58:03;78.60;;;74.30;;
1140;SDS011;559;48.628;8.924;2023-11-18T01:00:35;72.82;;;68.32;;
1140;SDS011;559;48.628;8.924;2023-11-18T01:03:03;72.07;;;67.97;;
1140;SDS011;559;48.628;8.924;2023-11-18T01:05:38;66.13;;;62.22;;
1140;SDS011;559;48.628;8.924;2023-11-18T01:08:08;67.70;;;63.70;;
1140;SDS011;559;48.628;8.924;2023-11-18T01:10:44;65.22;;;61.20;;
1140;SDS011;559;48.628;8.924;2023-11-18T01:13:10;64.15;;;60.25;;
1140;SDS011;559;48.628;8.924;2023-11-18T01:15:38;63.38;;;59.63;;
1140;SDS011;559;48.628;8.924;2023-11-18T01:18:07;67.70;;;63.80;;
1140;SDS011;559;48.628;8.924;2023-11-18T01:20:34;65.95;;;62.25;;
1140;SDS011;559;48.628;8.924;2023-11-18T01:23:01;67.13;;;63.22;;
1140;SDS011;559;48.628;8.924;2023-11-18T01:25:27;65.40;;;61.75;;
1140;SDS011;559;48.628;8.924;2023-11-18T01:27:54;66.18;;;62.40;;
1140;SDS011;559;48.628;8.924;2023-11-18T01:30:22;64.78;;;61.28;;
1140;SDS011;559;48.628;8.924;2023-11-18T01:32:53;65.95;;;62.45;;
1140;SDS011;559;48.628;8.924;2023-11-18T01:35:20;61.17;;;57.88;;
1140;SDS011;559;48.628;8.924;2023-11-18T01:37:47;62.08;;;58.55;;
1140;SDS011;559;48.628;8.924;2023-11-18T01:40:14;62.90;;;59.35;;
1140;SDS011;559;48.628;8.924;2023-11-18T01:42:44;60.58;;;57.05;;
1140;SDS011;559;48.628;8.924;2023-11-18T01:45:11;58.53;;;55.03;;
1140;SDS011;559;48.628;8.924;2023-11-18T01:47:39;60.10;;;56.53;;
1140;SDS011;559;48.628;8.924;2023-11-18T01:50:08;61.20;;;57.60;;
1140;SDS011;559;48.628;8.924;2023-11-18T01:52:36;61.75;;;58.10;;
1140;SDS011;559;48.628;8.924;2023-11-18T01:55:04;61.78;;;58.17;;
1140;SDS011;559;48.628;8.924;2023-11-18T01:57:32;61.75;;;58.05;;
1140;SDS011;559;48.628;8.924;2023-11-18T01:59:58;64.28;;;60.58;;
1140;SDS011;559;48.628;8.924;2023-11-18T02:02:25;63.38;;;59.67;;
1140;SDS011;559;48.628;8.924;2023-11-18T02:04:52;67.18;;;63.08;;
1140;SDS011;559;48.628;8.924;2023-11-18T02:07:39;66.47;;;62.67;;
1140;SDS011;559;48.628;8.924;2023-11-18T02:10:06;68.53;;;64.65;;
1140;SDS011;559;48.628;8.924;2023-11-18T02:12:36;75.22;;;71.13;;
1140;SDS011;559;48.628;8.924;2023-11-18T02:15:05;74.70;;;70.60;;
1140;SDS011;559;48.628;8.924;2023-11-18T02:17:34;72.25;;;68.30;;
1140;SDS011;559;48.628;8.924;2023-11-18T02:20:05;74.82;;;70.78;;
1140;SDS011;559;48.628;8.924;2023-11-18T02:22:41;74.07;;;70.05;;
1140;SDS011;559;48.628;8.924;2023-11-18T02:25:09;72.35;;;68.35;;
1140;SDS011;559;48.628;8.924;2023-11-18T02:27:37;71.07;;;67.13;;
1140;SDS011;559;48.628;8.924;2023-11-18T02:30:05;70.63;;;66.60;;
1140;SDS011;559;48.628;8.924;2023-11-18T02:32:38;74.65;;;70.60;;
1140;SDS011;559;48.628;8.924;2023-11-18T02:35:09;71.95;;;67.95;;
1140;SDS011;559;48.628;8.924;2023-11-18T02:37:38;75.82;;;71.63;;
1140;SDS011;559;48.628;8.924;2023-11-18T02:40:07;73.50;;;69.50;;
1140;SDS011;559;48.628;8.924;2023-11-18T02:42:40;72.85;;;68.85;;
1140;SDS011;559;48.628;8.924;2023-11-18T02:45:09;73.10;;;68.80;;
1140;SDS011;559;48.628;8.924;2023-11-18T02:47:37;74.30;;;70.30;;
1140;SDS011;559;48.628;8.924;2023-11-18T02:50:05;78.35;;;74.15;;
1140;SDS011;559;48.628;8.924;2023-11-18T02:52:35;73.28;;;69.28;;
1140;SDS011;559;48.628;8.924;2023-11-18T02:55:03;72.70;;;68.70;;
1140;SDS011;559;48.628;8.924;2023-11-18T02:57:31;76.93;;;72.70;;
1140;SDS011;559;48.628;8.924;2023-11-18T03:00:00;76.00;;;71.60;;
1140;SDS011;559;48.628;8.924;2023-11-18T03:02:26;76.95;;;72.78;;
1140;SDS011;559;48.628;8.924;2023-11-18T03:04:55;77.75;;;73.55;;
1140;SDS011;559;48.628;8.924;2023-11-18T03:07:21;80.10;;;75.80;;
1140;SDS011;559;48.628;8.924;2023-11-18T03:09:48;81.90;;;77.55;;
1140;SDS011;559;48.628;8.924;2023-11-18T03:12:14;76.70;;;72.50;;
1140;SDS011;559;48.628;8.924;2023-11-18T03:14:41;78.40;;;74.10;;
1140;SDS011;559;48.628;8.924;2023-11-18T03:17:09;82.18;;;77.63;;
1140;SDS011;559;48.628;8.924;2023-11-18T03:19:36;85.93;;;81.32;;
1140;SDS011;559;48.628;8.924;2023-11-18T03:22:02;81.18;;;76.88;;
1140;SDS011;559;48.628;8.924;2023-11-18T03:24:29;79.65;;;75.45;;
1140;SDS011;559;48.628;8.924;2023-11-18T03:26:55;81.55;;;77.15;;
1140;SDS011;559;48.628;8.924;2023-11-18T03:29:22;82.32;;;78.03;;
1140;SDS011;559;48.628;8.924;2023-11-18T03:31:49;85.80;;;81.40;;
1140;SDS011;559;48.628;8.924;2023-11-18T03:34:17;82.70;;;78.30;;
1140;SDS011;559;48.628;8.924;2023-11-18T03:36:45;81.53;;;77.22;;
1140;SDS011;559;48.628;8.924;2023-11-18T03:39:13;83.57;;;79.20;;
1140;SDS011;559;48.628;8.924;2023-11-18T03:41:40;82.25;;;78.05;;
1140;SDS011;559;48.628;8.924;2023-11-18T03:44:09;78.70;;;74.40;;
1140;SDS011;559;48.628;8.924;2023-11-18T03:46:36;76.15;;;71.95;;
1140;SDS011;559;48.628;8.924;2023-11-18T03:49:01;79.27;;;74.67;;
1140;SDS011;559;48.628;8.924;2023-11-18T03:51:29;84.07;;;79.50;;
1140;SDS011;559;48.628;8.924;2023-11-18T03:53:56;84.25;;;79.65;;
1140;SDS011;559;48.628;8.924;2023-11-18T03:56:22;86.18;;;81.43;;
1140;SDS011;559;48.628;8.924;2023-11-18T03:58:50;86.28;;;81.63;;
1140;SDS011;559;48.628;8.924;2023-11-18T04:01:20;88.72;;;84.03;;
1140;SDS011;559;48.628;8.924;2023-11-18T04:03:46;89.32;;;84.50;;
1140;SDS011;559;48.628;8.924;2023-11-18T04:06:13;90.10;;;85.40;;
1140;SDS011;559;48.628;8.924;2023-11-18T04:08:43;95.80;;;90.90;;
1140;SDS011;559;48.628;8.924;2023-11-18T04:11:11;92.63;;;87.75;;
1140;SDS011;559;48.628;8.924;2023-11-18T04:13:38;97.78;;;92.78;;
1140;SDS011;559;48.628;8.924;2023-11-18T04:16:06;87.20;;;82.30;;
1140;SDS011;559;48.628;8.924;2023-11-18T04:18:34;89.50;;;84.57;;
1140;SDS011;559;48.628;8.924;2023-11-18T04:21:05;82.90;;;78.20;;
1140;SDS011;559;48.628;8.924;2023-11-18T04:23:33;95.03;;;90.03;;
1140;SDS011;559;48.628;8.924;2023-11-18T04:26:01;91.28;;;86.30;;
1140;SDS011;559;48.628;8.924;2023-11-18T04:28:28;90.07;;;85.22;;
1140;SDS011;559;48.628;8.924;2023-11-18T04:30:55;84.63;;;79.85;;
1140;SDS011;559;48.628;8.924;2023-11-18T04:33:22;84.93;;;80.18;;
1140;SDS011;559;48.628;8.924;2023-11-18T04:35:49;86.63;;;81.82;;
1140;SDS011;559;48.628;8.924;2023-11-18T04:38:16;81.35;;;76.55;;
1140;SDS011;559;48.628;8.924;2023-11-18T04:40:43;81.43;;;76.78;;
1140;SDS011;559;48.628;8.924;2023-11-18T04:43:12;78.43;;;73.93;;
1140;SDS011;559;48.628;8.924;2023-11-18T04:45:39;77.05;;;72.53;;
1140;SDS011;559;48.628;8.924;2023-11-18T04:48:05;77.85;;;73.10;;
1140;SDS011;559;48.628;8.924;2023-11-18T04:50:32;78.95;;;74.40;;
1140;SDS011;559;48.628;8.924;2023-11-18T04:52:58;81.10;;;76.55;;
1140;SDS011;559;48.628;8.924;2023-11-18T04:55:25;83.45;;;78.75;;
1140;SDS011;559;48.628;8.924;2023-11-18T04:57:54;85.15;;;80.45;;
1140;SDS011;559;48.628;8.924;2023-11-18T05:00:22;78.22;;;73.80;;
1140;SDS011;559;48.628;8.924;2023-11-18T05:02:49;76.78;;;72.28;;
1140;SDS011;559;48.628;8.924;2023-11-18T05:05:16;84.32;;;79.60;;
1140;SDS011;559;48.628;8.924;2023-11-18T05:07:43;82.95;;;78.38;;
1140;SDS011;559;48.628;8.924;2023-11-18T05:10:09;79.95;;;75.38;;
1140;SDS011;559;48.628;8.924;2023-11-18T05:12:36;87.03;;;82.15;;
1140;SDS011;559;48.628;8.924;2023-11-18T05:15:05;81.20;;;76.47;;
1140;SDS011;559;48.628;8.924;2023-11-18T05:17:34;82.35;;;77.65;;
1140;SDS011;559;48.628;8.924;2023-11-18T05:20:02;79.68;;;74.95;;
1140;SDS011;559;48.628;8.924;2023-11-18T05:22:29;81.90;;;77.32;;
1140;SDS011;559;48.628;8.924;2023-11-18T05:24:56;85.85;;;81.05;;
1140;SDS011;559;48.628;8.924;2023-11-18T05:27:22;85.88;;;80.97;;
1140;SDS011;559;48.628;8.924;2023-11-18T05:29:52;89.80;;;84.90;;
1140;SDS011;559;48.628;8.924;2023-11-18T05:32:20;83.47;;;78.72;;
1140;SDS011;559;48.628;8.924;2023-11-18T05:34:49;81.20;;;76.50;;
1140;SDS011;559;48.628;8.924;2023-11-18T05:37:18;78.03;;;73.47;;
1140;SDS011;559;48.628;8.924;2023-11-18T05:39:45;76.75;;;72.35;;
1140;SDS011;559;48.628;8.924;2023-11-18T05:42:14;78.78;;;74.22;;
1140;SDS011;559;48.628;8.924;2023-11-18T05:44:40;76.40;;;71.90;;
1140;SDS011;559;48.628;8.924;2023-11-18T05:47:07;75.85;;;71.15;;
1140;SDS011;559;48.628;8.924;2023-11-18T05:49:36;76.25;;;71.85;;
1140;SDS011;559;48.628;8.924;2023-11-18T05:52:05;74.97;;;70.32;;
1140;SDS011;559;48.628;8.924;2023-11-18T05:54:32;78.90;;;74.40;;
1140;SDS011;559;48.628;8.924;2023-11-18T05:57:00;82.05;;;77.45;;
1140;SDS011;559;48.628;8.924;2023-11-18T05:59:27;78.15;;;73.63;;
1140;SDS011;559;48.628;8.924;2023-11-18T06:01:53;77.20;;;72.57;;
1140;SDS011;559;48.628;8.924;2023-11-18T06:04:22;78.72;;;74.13;;
1140;SDS011;559;48.628;8.924;2023-11-18T06:06:48;86.32;;;81.43;;
1140;SDS011;559;48.628;8.924;2023-11-18T06:09:16;82.55;;;77.85;;
1140;SDS011;559;48.628;8.924;2023-11-18T06:11:46;82.53;;;77.60;;
1140;SDS011;559;48.628;8.924;2023-11-18T06:14:14;82.53;;;77.88;;
1140;SDS011;559;48.628;8.924;2023-11-18T06:16:41;90.40;;;85.28;;
1140;SDS011;559;48.628;8.924;2023-11-18T06:19:08;85.28;;;80.38;;
1140;SDS011;559;48.628;8.924;2023-11-18T06:21:35;85.32;;;80.13;;
1140;SDS011;559;48.628;8.924;2023-11-18T06:24:02;87.15;;;82.25;;
1140;SDS011;559;48.628;8.924;2023-11-18T06:26:32;90.35;;;85.35;;
1140;SDS011;559;48.628;8.924;2023-11-18T06:29:01;87.70;;;82.70;;
1140;SDS011;559;48.628;8.924;2023-11-18T06:31:29;87.40;;;82.35;;
1140;SDS011;559;48.628;8.924;2023-11-18T06:33:55;88.75;;;83.50;;
1140;SDS011;559;48.628;8.924;2023-11-18T06:36:22;86.00;;;80.90;;
1140;SDS011;559;48.628;8.924;2023-11-18T06:38:52;82.53;;;77.45;;
1140;SDS011;559;48.628;8.924;2023-11-18T06:41:21;85.57;;;80.28;;
1140;SDS011;559;48.628;8.924;2023-11-18T06:43:52;72.05;;;67.47;;
1140;SDS011;559;48.628;8.924;2023-11-18T06:46:26;71.82;;;67.22;;
1140;SDS011;559;48.628;8.924;2023-11-18T06:48:56;73.50;;;69.00;;
1140;SDS011;559;48.628;8.924;2023-11-18T06:51:25;73.15;;;68.65;;
1140;SDS011;559;48.628;8.924;2023-11-18T06:53:52;70.90;;;66.35;;
1140;SDS011;559;48.628;8.924;2023-11-18T06:56:20;71.88;;;67.38;;
1140;SDS011;559;48.628;8.924;2023-11-18T06:58:46;70.43;;;66.13;;
1140;SDS011;559;48.628;8.924;2023-11-18T07:01:15;70.78;;;66.45;;
1140;SDS011;559;48.628;8.924;2023-11-18T07:03:42;69.10;;;64.70;;
1140;SDS011;559;48.628;8.924;2023-11-18T07:06:09;67.22;;;63.10;;
1140;SDS011;559;48.628;8.924;2023-11-18T07:08:35;70.20;;;66.10;;
1140;SDS011;559;48.628;8.924;2023-11-18T07:11:02;71.80;;;67.35;;
1140;SDS011;559;48.628;8.924;2023-11-18T07:13:31;73.20;;;68.90;;
1140;SDS011;559;48.628;8.924;2023-11-18T07:15:59;68.65;;;64.45;;
1140;SDS011;559;48.628;8.924;2023-11-18T07:18:30;71.60;;;67.40;;
1140;SDS011;559;48.628;8.924;2023-11-18T07:20:58;68.85;;;64.60;;
1140;SDS011;559;48.628;8.924;2023-11-18T07:23:25;67.53;;;63.28;;
1140;SDS011;559;48.628;8.924;2023-11-18T07:25:51;68.00;;;63.90;;
1140;SDS011;559;48.628;8.924;2023-11-18T07:28:18;63.28;;;59.47;;
1140;SDS011;559;48.628;8.924;2023-11-18T07:30:45;62.00;;;58.17;;
1140;SDS011;559;48.628;8.924;2023-11-18T07:33:12;62.88;;;59.08;;
1140;SDS011;559;48.628;8.924;2023-11-18T07:35:41;60.50;;;56.90;;
1140;SDS011;559;48.628;8.924;2023-11-18T07:38:11;61.42;;;57.55;;
1140;SDS011;559;48.628;8.924;2023-11-18T07:40:38;59.13;;;55.63;;
1140;SDS011;559;48.628;8.924;2023-11-18T07:43:07;60.10;;;56.60;;
1140;SDS011;559;48.628;8.924;2023-11-18T07:45:34;57.22;;;53.90;;
1140;SDS011;559;48.628;8.924;2023-11-18T07:48:02;55.80;;;52.50;;
1140;SDS011;559;48.628;8.924;2023-11-18T07:50:31;56.67;;;53.28;;
1140;SDS011;559;48.628;8.924;2023-11-18T07:53:00;57.47;;;53.95;;
1140;SDS011;559;48.628;8.924;2023-11-18T07:55:26;56.35;;;53.05;;
1140;SDS011;559;48.628;8.924;2023-11-18T07:57:53;53.65;;;50.65;;
1140;SDS011;559;48.628;8.924;2023-11-18T08:00:20;52.53;;;49.40;;
1140;SDS011;559;48.628;8.924;2023-11-18T08:02:48;53.03;;;49.80;;
1140;SDS011;559;48.628;8.924;2023-11-18T08:05:16;51.28;;;48.20;;
1140;SDS011;559;48.628;8.924;2023-11-18T08:07:44;51.40;;;48.40;;
1140;SDS011;559;48.628;8.924;2023-11-18T08:10:12;52.55;;;49.65;;
1140;SDS011;559;48.628;8.924;2023-11-18T08:12:43;49.50;;;46.60;;
1140;SDS011;559;48.628;8.924;2023-11-18T08:15:11;47.88;;;45.10;;
1140;SDS011;559;48.628;8.924;2023-11-18T08:17:39;49.22;;;46.42;;
1140;SDS011;559;48.628;8.924;2023-11-18T08:20:06;48.85;;;46.05;;
1140;SDS011;559;48.628;8.924;2023-11-18T08:22:39;47.00;;;44.40;;
1140;SDS011;559;48.628;8.924;2023-11-18T08:25:06;48.08;;;45.53;;
1140;SDS011;559;48.628;8.924;2023-11-18T08:27:35;48.20;;;45.50;;
1140;SDS011;559;48.628;8.924;2023-11-18T08:30:03;47.35;;;44.85;;
1140;SDS011;559;48.628;8.924;2023-11-18T08:32:36;46.22;;;43.83;;
1140;SDS011;559;48.628;8.924;2023-11-18T08:35:03;48.55;;;45.28;;
1140;SDS011;559;48.628;8.924;2023-11-18T08:37:40;47.65;;;44.95;;
1140;SDS011;559;48.628;8.924;2023-11-18T08:40:07;47.83;;;45.08;;
1140;SDS011;559;48.628;8.924;2023-11-18T08:42:41;47.00;;;44.45;;
1140;SDS011;559;48.628;8.924;2023-11-18T08:45:12;47.25;;;44.55;;
1140;SDS011;559;48.628;8.924;2023-11-18T08:47:42;46.95;;;44.28;;
1140;SDS011;559;48.628;8.924;2023-11-18T08:50:09;48.28;;;45.33;;
1140;SDS011;559;48.628;8.924;2023-11-18T08:52:37;46.80;;;44.30;;
1140;SDS011;559;48.628;8.924;2023-11-18T08:55:08;49.40;;;46.50;;
1140;SDS011;559;48.628;8.924;2023-11-18T08:57:44;49.50;;;46.78;;
1140;SDS011;559;48.628;8.924;2023-11-18T09:00:24;50.42;;;47.70;;
1140;SDS011;559;48.628;8.924;2023-11-18T09:03:10;49.30;;;46.80;;
1140;SDS011;559;48.628;8.924;2023-11-18T09:05:42;45.63;;;43.42;;
1140;SDS011;559;48.628;8.924;2023-11-18T09:08:21;45.60;;;43.20;;
1140;SDS011;559;48.628;8.924;2023-11-18T09:10:50;44.92;;;42.80;;
1140;SDS011;559;48.628;8.924;2023-11-18T09:13:20;44.58;;;42.47;;
1140;SDS011;559;48.628;8.924;2023-11-18T09:18:45;41.85;;;40.05;;
1140;SDS011;559;48.628;8.924;2023-11-18T09:21:16;43.72;;;41.63;;
1140;SDS011;559;48.628;8.924;2023-11-18T09:23:51;44.85;;;42.75;;
1140;SDS011;559;48.628;8.924;2023-11-18T09:26:44;41.78;;;39.88;;
1140;SDS011;559;48.628;8.924;2023-11-18T09:29:33;41.50;;;39.60;;
1140;SDS011;559;48.628;8.924;2023-11-18T09:32:14;45.13;;;42.92;;
1140;SDS011;559;48.628;8.924;2023-11-18T09:34:41;43.88;;;41.72;;
1140;SDS011;559;48.628;8.924;2023-11-18T09:37:24;40.15;;;38.45;;
1140;SDS011;559;48.628;8.924;2023-11-18T09:40:35;40.17;;;38.47;;
1140;SDS011;559;48.628;8.924;2023-11-18T09:43:16;40.30;;;38.50;;
1140;SDS011;559;48.628;8.924;2023-11-18T09:46:20;39.33;;;37.67;;
1140;SDS011;559;48.628;8.924;2023-11-18T09:48:49;38.15;;;36.65;;
1140;SDS011;559;48.628;8.924;2023-11-18T09:51:19;37.65;;;36.15;;
1140;SDS011;559;48.628;8.924;2023-11-18T09:53:50;38.65;;;37.05;;
1140;SDS011;559;48.628;8.924;2023-11-18T09:56:19;38.63;;;37.13;;
1140;SDS011;559;48.628;8.924;2023-11-18T09:58:54;37.30;;;35.80;;
1140;SDS011;559;48.628;8.924;2023-11-18T10:01:34;37.33;;;35.80;;
1140;SDS011;559;48.628;8.924;2023-11-18T10:04:03;36.67;;;35.28;;
1140;SDS011;559;48.628;8.924;2023-11-18T10:06:31;36.15;;;34.85;;
1140;SDS011;559;48.628;8.924;2023-11-18T10:09:00;36.70;;;35.30;;
1140;SDS011;559;48.628;8.924;2023-11-18T10:11:41;36.78;;;35.33;;
1140;SDS011;559;48.628;8.924;2023-11-18T10:14:08;36.70;;;35.30;;
1140;SDS011;559;48.628;8.924;2023-11-18T10:16:37;35.40;;;34.10;;
1140;SDS011;559;48.628;8.924;2023-11-18T10:19:04;35.00;;;33.70;;
1140;SDS011;559;48.628;8.924;2023-11-18T10:21:34;34.33;;;33.22;;
1140;SDS011;559;48.628;8.924;2023-11-18T10:24:04;35.47;;;34.17;;
1140;SDS011;559;48.628;8.924;2023-11-18T10:26:39;33.28;;;32.17;;
1140;SDS011;559;48.628;8.924;2023-11-18T10:29:07;34.53;;;33.13;;
1140;SDS011;559;48.628;8.924;2023-11-18T10:31:36;33.28;;;32.17;;
1140;SDS011;559;48.628;8.924;2023-11-18T10:34:09;34.40;;;33.20;;
1140;SDS011;559;48.628;8.924;2023-11-18T10:36:37;31.80;;;30.80;;
1140;SDS011;559;48.628;8.924;2023-11-18T10:39:04;32.10;;;30.90;;
1140;SDS011;559;48.628;8.924;2023-11-18T10:41:39;41.00;;;39.00;;
1140;SDS011;559;48.628;8.924;2023-11-18T10:44:07;31.75;;;30.65;;
1140;SDS011;559;48.628;8.924;2023-11-18T10:46:42;30.73;;;29.80;;
1140;SDS011;559;48.628;8.924;2023-11-18T10:49:17;29.60;;;28.70;;
1140;SDS011;559;48.628;8.924;2023-11-18T10:51:45;30.38;;;29.38;;
1140;SDS011;559;48.628;8.924;2023-11-18T10:54:12;30.00;;;29.00;;
1140;SDS011;559;48.628;8.924;2023-11-18T10:56:46;30.90;;;29.90;;
1140;SDS011;559;48.628;8.924;2023-11-18T10:59:13;32.40;;;31.10;;
1140;SDS011;559;48.628;8.924;2023-11-18T11:01:47;33.08;;;31.92;;
1140;SDS011;559;48.628;8.924;2023-11-18T11:04:17;32.20;;;31.20;;
1140;SDS011;559;48.628;8.924;2023-11-18T11:06:57;32.30;;;31.20;;
1140;SDS011;559;48.628;8.924;2023-11-18T11:09:36;30.23;;;29.13;;
1140;SDS011;559;48.628;8.924;2023-11-18T11:12:21;32.45;;;31.13;;
1140;SDS011;559;48.628;8.924;2023-11-18T11:15:04;32.50;;;31.33;;
1140;SDS011;559;48.628;8.924;2023-11-18T11:21:03;33.20;;;31.88;;
1140;SDS011;559;48.628;8.924;2023-11-18T11:23:54;34.85;;;33.42;;
1140;SDS011;559;48.628;8.924;2023-11-18T11:26:50;35.30;;;33.80;;
1140;SDS011;559;48.628;8.924;2023-11-18T11:29:27;35.25;;;33.75;;
1140;SDS011;559;48.628;8.924;2023-11-18T11:32:15;33.95;;;32.65;;
1140;SDS011;559;48.628;8.924;2023-11-18T11:35:36;34.78;;;33.47;;
1140;SDS011;559;48.628;8.924;2023-11-18T11:38:17;34.00;;;32.60;;
1140;SDS011;559;48.628;8.924;2023-11-18T11:40:50;32.97;;;31.88;;
1140;SDS011;559;48.628;8.924;2023-11-18T11:43:23;33.35;;;32.10;;
1140;SDS011;559;48.628;8.924;2023-11-18T11:45:53;33.70;;;32.13;;
1140;SDS011;559;48.628;8.924;2023-11-18T11:48:20;33.90;;;32.38;;
1140;SDS011;559;48.628;8.924;2023-11-18T11:51:22;34.55;;;33.25;;
1140;SDS011;559;48.628;8.924;2023-11-18T11:53:58;34.95;;;33.65;;
1140;SDS011;559;48.628;8.924;2023-11-18T11:56:57;34.22;;;32.72;;
1140;SDS011;559;48.628;8.924;2023-11-18T12:02:44;34.17;;;32.88;;
1140;SDS011;559;48.628;8.924;2023-11-18T12:05:20;35.58;;;34.10;;
1140;SDS011;559;48.628;8.924;2023-11-18T12:08:12;35.50;;;34.13;;
1140;SDS011;559;48.628;8.924;2023-11-18T12:13:48;34.85;;;33.45;;
1140;SDS011;559;48.628;8.924;2023-11-18T12:17:37;35.97;;;34.67;;
1140;SDS011;559;48.628;8.924;2023-11-18T12:20:48;37.17;;;35.45;;
1140;SDS011;559;48.628;8.924;2023-11-18T12:30:56;37.28;;;35.78;;
1140;SDS011;559;48.628;8.924;2023-11-18T12:36:58;35.90;;;34.50;;
1140;SDS011;559;48.628;8.924;2023-11-18T12:49:40;38.03;;;36.33;;
1140;SDS011;559;48.628;8.924;2023-11-18T12:52:25;37.67;;;36.05;;
1140;SDS011;559;48.628;8.924;2023-11-18T12:58:23;38.63;;;37.00;;
1140;SDS011;559;48.628;8.924;2023-11-18T13:04:02;39.45;;;37.70;;
1140;SDS011;559;48.628;8.924;2023-11-18T13:10:25;41.22;;;39.33;;
1140;SDS011;559;48.628;8.924;2023-11-18T13:13:17;41.05;;;39.10;;
1140;SDS011;559;48.628;8.924;2023-11-18T13:15:47;40.60;;;38.70;;
1140;SDS011;559;48.628;8.924;2023-11-18T13:18:24;40.80;;;38.90;;
1140;SDS011;559;48.628;8.924;2023-11-18T13:20:55;41.78;;;39.78;;
1140;SDS011;559;48.628;8.924;2023-11-18T13:23:25;40.55;;;38.65;;
1140;SDS011;559;48.628;8.924;2023-11-18T13:25:54;41.80;;;39.80;;
1140;SDS011;559;48.628;8.924;2023-11-18T13:28:21;43.30;;;40.90;;
1140;SDS011;559;48.628;8.924;2023-11-18T13:30:48;43.85;;;41.85;;
1140;SDS011;559;48.628;8.924;2023-11-18T13:33:15;42.70;;;40.63;;
1140;SDS011;559;48.628;8.924;2023-11-18T13:35:42;42.67;;;40.20;;
1140;SDS011;559;48.628;8.924;2023-11-18T13:38:09;44.10;;;41.90;;
1140;SDS011;559;48.628;8.924;2023-11-18T13:40:44;46.13;;;43.70;;
1140;SDS011;559;48.628;8.924;2023-11-18T13:43:11;46.92;;;44.53;;
1140;SDS011;559;48.628;8.924;2023-11-18T13:45:40;45.38;;;42.50;;
1140;SDS011;559;48.628;8.924;2023-11-18T13:48:11;44.10;;;41.90;;
1140;SDS011;559;48.628;8.924;2023-11-18T13:50:40;43.30;;;41.10;;
1140;SDS011;559;48.628;8.924;2023-11-18T13:53:07;43.80;;;41.30;;
1140;SDS011;559;48.628;8.924;2023-11-18T13:55:35;43.38;;;41.08;;
1140;SDS011;559;48.628;8.924;2023-11-18T13:58:05;44.80;;;42.40;;
1140;SDS011;559;48.628;8.924;2023-11-18T14:00:32;46.72;;;44.13;;
1140;SDS011;559;48.628;8.924;2023-11-18T14:02:58;46.22;;;43.83;;
1140;SDS011;559;48.628;8.924;2023-11-18T14:05:25;49.25;;;45.67;;
1140;SDS011;559;48.628;8.924;2023-11-18T14:07:54;47.13;;;44.47;;
1140;SDS011;559;48.628;8.924;2023-11-18T14:10:24;47.92;;;45.20;;
1140;SDS011;559;48.628;8.924;2023-11-18T14:13:01;48.42;;;45.08;;
1140;SDS011;559;48.628;8.924;2023-11-18T14:15:32;47.05;;;44.55;;
1140;SDS011;559;48.628;8.924;2023-11-18T14:18:00;46.38;;;43.92;;
1140;SDS011;559;48.628;8.924;2023-11-18T14:20:27;46.22;;;43.72;;
1140;SDS011;559;48.628;8.924;2023-11-18T14:22:56;47.55;;;45.00;;
1140;SDS011;559;48.628;8.924;2023-11-18T14:25:23;47.30;;;44.60;;
1140;SDS011;559;48.628;8.924;2023-11-18T14:27:50;54.33;;;50.25;;
1140;SDS011;559;48.628;8.924;2023-11-18T14:30:21;48.65;;;46.05;;
1140;SDS011;559;48.628;8.924;2023-11-18T14:32:50;47.75;;;45.15;;
1140;SDS011;559;48.628;8.924;2023-11-18T14:35:20;47.15;;;44.63;;
1140;SDS011;559;48.628;8.924;2023-11-18T14:37:47;46.50;;;44.20;;
1140;SDS011;559;48.628;8.924;2023-11-18T14:40:15;54.42;;;51.28;;
1140;SDS011;559;48.628;8.924;2023-11-18T14:42:42;50.95;;;47.55;;
1140;SDS011;559;48.628;8.924;2023-11-18T14:45:13;50.42;;;47.83;;
1140;SDS011;559;48.628;8.924;2023-11-18T14:47:42;47.80;;;45.40;;
1140;SDS011;559;48.628;8.924;2023-11-18T14:50:14;46.30;;;43.85;;
1140;SDS011;559;48.628;8.924;2023-11-18T14:52:46;49.00;;;46.00;;
1140;SDS011;559;48.628;8.924;2023-11-18T14:55:13;46.83;;;44.03;;
1140;SDS011;559;48.628;8.924;2023-11-18T14:57:46;46.78;;;44.47;;
1140;SDS011;559;48.628;8.924;2023-11-18T15:00:15;49.05;;;46.03;;
1140;SDS011;559;48.628;8.924;2023-11-18T15:02:46;47.25;;;44.85;;
1140;SDS011;559;48.628;8.924;2023-11-18T15:05:15;48.47;;;45.50;;
1140;SDS011;559;48.628;8.924;2023-11-18T15:07:46;54.30;;;50.30;;
1140;SDS011;559;48.628;8.924;2023-11-18T15:10:19;46.83;;;44.53;;
1140;SDS011;559;48.628;8.924;2023-11-18T15:12:47;48.33;;;46.13;;
1140;SDS011;559;48.628;8.924;2023-11-18T15:15:14;47.40;;;45.20;;
1140;SDS011;559;48.628;8.924;2023-11-18T15:17:45;112.22;;;61.42;;
1140;SDS011;559;48.628;8.924;2023-11-18T15:20:17;44.60;;;42.60;;
1140;SDS011;559;48.628;8.924;2023-11-18T15:22:44;45.00;;;42.90;;
1140;SDS011;559;48.628;8.924;2023-11-18T15:25:11;44.25;;;42.10;;
1140;SDS011;559;48.628;8.924;2023-11-18T15:27:42;45.92;;;43.30;;
1140;SDS011;559;48.628;8.924;2023-11-18T15:30:11;46.72;;;42.90;;
1140;SDS011;559;48.628;8.924;2023-11-18T15:32:38;44.50;;;42.30;;
1140;SDS011;559;48.628;8.924;2023-11-18T15:35:06;43.97;;;41.80;;
1140;SDS011;559;48.628;8.924;2023-11-18T15:37:36;46.75;;;44.20;;
1140;SDS011;559;48.628;8.924;2023-11-18T15:40:04;41.97;;;40.08;;
1140;SDS011;559;48.628;8.924;2023-11-18T15:42:35;43.78;;;41.63;;
1140;SDS011;559;48.628;8.924;2023-11-18T15:45:03;43.58;;;40.90;;
1140;SDS011;559;48.628;8.924;2023-11-18T15:47:33;44.25;;;42.25;;
1140;SDS011;559;48.628;8.924;2023-11-18T15:50:01;42.45;;;40.55;;
1140;SDS011;559;48.628;8.924;2023-11-18T15:52:27;43.92;;;41.70;;
1140;SDS011;559;48.628;8.924;2023-11-18T15:54:55;43.53;;;41.20;;
1140;SDS011;559;48.628;8.924;2023-11-18T15:57:21;44.15;;;41.75;;
1140;SDS011;559;48.628;8.924;2023-11-18T15:59:48;43.22;;;40.97;;
1140;SDS011;559;48.628;8.924;2023-11-18T16:02:15;45.70;;;42.45;;
1140;SDS011;559;48.628;8.924;2023-11-18T16:04:42;41.75;;;39.72;;